createdAt,value
2023-03-20T00:00:06.252Z,38.60
2023-03-20T00:01:06.240Z,37.60
2023-03-20T00:02:06.260Z,36.10
2023-03-20T00:03:06.235Z,39.80
2023-03-20T00:04:06.309Z,38.50
2023-03-20T00:05:06.242Z,40.80
2023-03-20T00:06:06.185Z,40.00
2023-03-20T00:07:06.191Z,41.70
2023-03-20T00:08:06.172Z,40.50
2023-03-20T00:09:07.223Z,42.10
2023-03-20T00:10:06.173Z,42.20
2023-03-20T00:11:06.152Z,39.60
2023-03-20T00:12:06.127Z,38.70
2023-03-20T00:13:06.105Z,41.00
2023-03-20T00:14:06.155Z,43.30
2023-03-20T00:15:06.104Z,39.40
2023-03-20T00:16:06.166Z,41.70
2023-03-20T00:17:06.082Z,43.00
2023-03-20T00:18:06.066Z,41.90
2023-03-20T00:19:06.059Z,41.90
2023-03-20T00:20:06.036Z,43.50
2023-03-20T00:21:06.027Z,42.10
2023-03-20T00:22:06.010Z,39.70
2023-03-20T00:23:06.004Z,41.30
2023-03-20T00:24:06.054Z,44.20
2023-03-20T00:25:06.012Z,44.60
2023-03-20T00:26:05.966Z,48.40
2023-03-20T00:27:05.989Z,44.10
2023-03-20T00:28:05.949Z,45.10
2023-03-20T00:29:05.927Z,43.30
2023-03-20T00:30:05.935Z,40.60
2023-03-20T00:31:05.968Z,43.50
2023-03-20T00:32:05.980Z,44.90
2023-03-20T00:33:05.956Z,46.40
2023-03-20T00:34:05.893Z,43.20
2023-03-20T00:35:06.066Z,47.80
2023-03-20T00:36:05.917Z,46.60
2023-03-20T00:37:05.858Z,46.10
2023-03-20T00:38:05.833Z,44.60
2023-03-20T00:39:05.826Z,44.80
2023-03-20T00:40:05.823Z,44.40
2023-03-20T00:41:05.796Z,43.40
2023-03-20T00:42:05.794Z,47.40
2023-03-20T00:43:13.280Z,43.20
2023-03-20T00:44:05.765Z,46.80
2023-03-20T00:45:05.768Z,46.10
2023-03-20T00:46:05.748Z,45.90
2023-03-20T00:47:05.806Z,44.30
2023-03-20T00:48:05.722Z,45.00
2023-03-20T00:49:05.720Z,47.00
2023-03-20T00:50:05.716Z,42.80
2023-03-20T00:51:05.707Z,42.90
2023-03-20T00:52:05.709Z,43.70
2023-03-20T00:53:05.665Z,42.70
2023-03-20T00:54:05.672Z,44.30
2023-03-20T00:55:05.676Z,43.30
2023-03-20T00:56:05.636Z,42.10
2023-03-20T00:57:05.654Z,45.10
2023-03-20T00:58:05.621Z,42.10
2023-03-20T00:59:06.597Z,46.60
2023-03-20T01:00:05.604Z,41.60
2023-03-20T01:01:05.664Z,41.90
2023-03-20T01:02:05.643Z,43.80
2023-03-20T01:03:05.555Z,38.70
2023-03-20T01:04:05.561Z,43.00
2023-03-20T01:05:05.568Z,40.60
2023-03-20T01:06:05.545Z,43.10
2023-03-20T01:07:05.556Z,40.60
2023-03-20T01:08:05.553Z,40.20
2023-03-20T01:09:05.532Z,38.60
2023-03-20T01:10:05.524Z,39.00
2023-03-20T01:11:05.469Z,41.30
2023-03-20T01:12:05.472Z,39.30
2023-03-20T01:13:05.462Z,40.60
2023-03-20T01:14:05.438Z,38.10
2023-03-20T01:15:05.440Z,37.50
2023-03-20T01:16:05.491Z,41.40
2023-03-20T01:17:05.425Z,36.70
2023-03-20T01:18:05.408Z,34.50
2023-03-20T01:19:05.377Z,36.90
2023-03-20T01:20:05.392Z,35.00
2023-03-20T01:21:05.368Z,38.10
2023-03-20T01:22:05.346Z,36.20
2023-03-20T01:23:05.366Z,36.60
2023-03-20T01:24:05.326Z,37.80
2023-03-20T01:25:05.314Z,35.10
2023-03-20T01:26:05.369Z,32.60
2023-03-20T01:27:05.288Z,34.30
2023-03-20T01:28:05.295Z,32.40
2023-03-20T01:29:05.293Z,32.10
2023-03-20T01:30:05.268Z,34.30
2023-03-20T01:31:05.248Z,33.60
2023-03-20T01:32:05.289Z,32.40
2023-03-20T01:33:05.276Z,35.20
2023-03-20T01:34:05.220Z,33.00
2023-03-20T01:35:05.219Z,35.90
2023-03-20T01:36:05.257Z,32.20
2023-03-20T01:37:05.323Z,32.50
2023-03-20T01:38:05.168Z,32.10
2023-03-20T01:39:05.194Z,35.00
2023-03-20T01:40:05.149Z,32.80
2023-03-20T01:41:05.136Z,35.70
2023-03-20T01:42:05.137Z,34.40
2023-03-20T01:43:05.116Z,33.00
2023-03-20T01:44:05.107Z,32.30
2023-03-20T01:45:05.088Z,35.10
2023-03-20T01:46:05.138Z,33.20
2023-03-20T01:47:05.081Z,35.80
2023-03-20T01:48:05.056Z,32.60
2023-03-20T01:49:05.044Z,34.40
2023-03-20T01:50:05.063Z,34.50
2023-03-20T01:51:05.038Z,31.80
2023-03-20T01:52:05.024Z,33.70
2023-03-20T01:53:05.007Z,32.60
2023-03-20T01:54:05.007Z,35.50
2023-03-20T01:55:05.005Z,30.50
2023-03-20T01:56:05.017Z,35.70
2023-03-20T01:57:04.968Z,34.40
2023-03-20T01:58:05.469Z,35.10
2023-03-20T01:59:04.964Z,36.10
2023-03-20T02:00:04.928Z,31.90
2023-03-20T02:01:04.985Z,34.00
2023-03-20T02:02:04.922Z,34.60
2023-03-20T02:03:04.895Z,34.90
2023-03-20T02:04:04.889Z,34.60
2023-03-20T02:05:04.943Z,35.80
2023-03-20T02:06:04.860Z,34.00
2023-03-20T02:07:04.858Z,34.00
2023-03-20T02:08:04.856Z,35.30
2023-03-20T02:09:04.836Z,35.30
2023-03-20T02:10:04.818Z,35.00
2023-03-20T02:11:04.824Z,33.80
2023-03-20T02:12:04.827Z,33.60
2023-03-20T02:13:04.800Z,36.90
2023-03-20T02:14:04.773Z,35.50
2023-03-20T02:15:04.790Z,35.90
2023-03-20T02:16:04.762Z,33.70
2023-03-20T02:17:04.763Z,38.40
2023-03-20T02:18:04.728Z,32.60
2023-03-20T02:19:04.731Z,35.40
2023-03-20T02:20:04.710Z,34.30
2023-03-20T02:21:04.707Z,35.10
2023-03-20T02:22:04.692Z,36.80
2023-03-20T02:23:04.675Z,34.90
2023-03-20T02:24:04.687Z,33.40
2023-03-20T02:25:04.709Z,34.70
2023-03-20T02:26:04.650Z,36.50
2023-03-20T02:27:04.671Z,36.80
2023-03-20T02:28:04.754Z,34.90
2023-03-20T02:29:04.626Z,33.70
2023-03-20T02:30:04.595Z,34.80
2023-03-20T02:31:04.676Z,32.90
2023-03-20T02:32:04.582Z,40.50
2023-03-20T02:33:04.648Z,36.40
2023-03-20T02:34:04.574Z,37.80
2023-03-20T02:35:04.541Z,39.20
2023-03-20T02:36:04.618Z,35.40
2023-03-20T02:37:04.528Z,33.70
2023-03-20T02:38:04.504Z,40.70
2023-03-20T02:39:04.502Z,36.00
2023-03-20T02:40:04.504Z,36.10
2023-03-20T02:41:04.497Z,36.90
2023-03-20T02:42:04.460Z,33.30
2023-03-20T02:43:04.474Z,37.90
2023-03-20T02:44:11.975Z,34.20
2023-03-20T02:45:04.454Z,34.60
2023-03-20T02:46:04.460Z,38.20
2023-03-20T02:47:04.427Z,34.70
2023-03-20T02:48:04.401Z,36.90
2023-03-20T02:49:04.382Z,34.60
2023-03-20T02:50:04.383Z,37.00
2023-03-20T02:51:04.368Z,36.80
2023-03-20T02:52:04.354Z,34.20
2023-03-20T02:53:04.368Z,37.60
2023-03-20T02:54:04.331Z,36.90
2023-03-20T02:55:04.322Z,36.70
2023-03-20T02:56:04.308Z,35.70
2023-03-20T02:57:04.376Z,34.80
2023-03-20T02:58:04.304Z,40.10
2023-03-20T02:59:04.294Z,38.40
2023-03-20T03:00:04.287Z,37.90
2023-03-20T03:01:04.263Z,36.70
2023-03-20T03:02:04.242Z,38.00
2023-03-20T03:03:04.268Z,37.30
2023-03-20T03:04:04.219Z,39.30
2023-03-20T03:05:04.209Z,41.00
2023-03-20T03:06:04.214Z,39.50
2023-03-20T03:07:04.260Z,39.40
2023-03-20T03:08:04.190Z,37.10
2023-03-20T03:09:04.178Z,43.10
2023-03-20T03:10:04.156Z,39.60
2023-03-20T03:11:04.151Z,40.80
2023-03-20T03:12:04.134Z,43.80
2023-03-20T03:13:04.121Z,39.40
2023-03-20T03:14:04.120Z,41.20
2023-03-20T03:15:04.130Z,40.70
2023-03-20T03:16:04.118Z,40.90
2023-03-20T03:17:04.076Z,39.30
2023-03-20T03:18:04.069Z,40.80
2023-03-20T03:19:04.058Z,40.60
2023-03-20T03:20:04.077Z,40.10
2023-03-20T03:21:04.031Z,42.90
2023-03-20T03:22:04.066Z,38.30
2023-03-20T03:23:04.009Z,40.00
2023-03-20T03:24:04.022Z,42.40
2023-03-20T03:25:03.982Z,39.60
2023-03-20T03:26:03.990Z,41.60
2023-03-20T03:27:03.979Z,42.70
2023-03-20T03:28:03.953Z,40.50
2023-03-20T03:29:03.952Z,40.60
2023-03-20T03:30:03.935Z,39.60
2023-03-20T03:31:03.986Z,39.50
2023-03-20T03:32:03.912Z,35.00
2023-03-20T03:33:03.923Z,38.00
2023-03-20T03:34:03.900Z,35.30
2023-03-20T03:35:03.890Z,37.30
2023-03-20T03:36:03.928Z,39.70
2023-03-20T03:37:03.858Z,36.80
2023-03-20T03:38:03.854Z,35.10
2023-03-20T03:39:03.838Z,36.80
2023-03-20T03:40:03.823Z,37.10
2023-03-20T03:41:03.820Z,37.20
2023-03-20T03:42:03.819Z,34.60
2023-03-20T03:43:03.788Z,38.10
2023-03-20T03:44:03.800Z,39.10
2023-03-20T03:45:03.761Z,38.10
2023-03-20T03:46:03.764Z,36.00
2023-03-20T03:47:03.873Z,38.30
2023-03-20T03:48:03.769Z,35.40
2023-03-20T03:49:03.751Z,34.10
2023-03-20T03:50:03.709Z,34.70
2023-03-20T03:51:03.698Z,34.80
2023-03-20T03:52:03.737Z,33.40
2023-03-20T03:53:03.679Z,37.00
2023-03-20T03:54:03.667Z,31.40
2023-03-20T03:55:03.671Z,32.20
2023-03-20T03:56:03.678Z,35.90
2023-03-20T03:57:04.141Z,31.50
2023-03-20T03:58:03.622Z,32.90
2023-03-20T03:59:03.612Z,31.40
2023-03-20T04:00:03.609Z,33.90
2023-03-20T04:01:03.602Z,34.00
2023-03-20T04:02:03.671Z,32.10
2023-03-20T04:03:03.600Z,32.50
2023-03-20T04:04:04.945Z,30.90
2023-03-20T04:05:03.644Z,30.00
2023-03-20T04:06:03.534Z,30.40
2023-03-20T04:07:03.534Z,30.20
2023-03-20T04:08:03.540Z,29.20
2023-03-20T04:09:03.518Z,32.80
2023-03-20T04:10:03.501Z,31.00
2023-03-20T04:11:03.497Z,29.80
2023-03-20T04:12:03.465Z,31.20
2023-03-20T04:13:03.463Z,29.90
2023-03-20T04:14:03.450Z,31.60
2023-03-20T04:15:03.699Z,30.80
2023-03-20T04:16:03.480Z,28.50
2023-03-20T04:17:03.429Z,33.40
2023-03-20T04:18:03.402Z,28.70
2023-03-20T04:19:03.455Z,31.10
2023-03-20T04:20:03.383Z,31.50
2023-03-20T04:21:03.382Z,33.20
2023-03-20T04:22:03.365Z,32.10
2023-03-20T04:23:03.353Z,30.70
2023-03-20T04:24:03.352Z,30.80
2023-03-20T04:25:03.344Z,33.40
2023-03-20T04:26:03.340Z,31.40
2023-03-20T04:27:03.336Z,31.70
2023-03-20T04:28:03.302Z,30.60
2023-03-20T04:29:03.299Z,29.50
2023-03-20T04:30:03.271Z,28.60
2023-03-20T04:31:03.288Z,31.10
2023-03-20T04:32:03.254Z,30.70
2023-03-20T04:33:03.283Z,30.50
2023-03-20T04:34:03.247Z,30.50
2023-03-20T04:35:03.253Z,31.30
2023-03-20T04:36:03.237Z,30.30
2023-03-20T04:37:03.202Z,32.10
2023-03-20T04:38:03.194Z,31.90
2023-03-20T04:39:03.181Z,31.80
2023-03-20T04:40:03.171Z,31.60
2023-03-20T04:41:03.153Z,29.70
2023-03-20T04:42:03.136Z,30.30
2023-03-20T04:43:03.141Z,28.90
2023-03-20T04:44:03.115Z,29.90
2023-03-20T04:45:10.616Z,31.60
2023-03-20T04:46:03.174Z,30.80
2023-03-20T04:47:03.110Z,30.60
2023-03-20T04:48:03.073Z,29.90
2023-03-20T04:49:03.062Z,30.60
2023-03-20T04:50:03.050Z,30.40
2023-03-20T04:51:03.067Z,30.60
2023-03-20T04:52:03.051Z,29.50
2023-03-20T04:53:03.029Z,30.50
2023-03-20T04:54:03.019Z,29.40
2023-03-20T04:55:02.999Z,29.50
2023-03-20T04:56:03.025Z,28.90
2023-03-20T04:57:02.993Z,28.10
2023-03-20T04:58:02.964Z,25.90
2023-03-20T04:59:02.955Z,28.10
2023-03-20T05:00:02.943Z,26.40
2023-03-20T05:01:02.971Z,26.10
2023-03-20T05:02:02.937Z,26.50
2023-03-20T05:03:02.909Z,27.50
2023-03-20T05:04:02.985Z,27.00
2023-03-20T05:05:02.932Z,28.40
2023-03-20T05:06:02.879Z,25.30
2023-03-20T05:07:02.905Z,28.50
2023-03-20T05:08:02.856Z,26.20
2023-03-20T05:09:02.842Z,28.60
2023-03-20T05:10:02.842Z,27.30
2023-03-20T05:11:02.821Z,25.90
2023-03-20T05:12:02.819Z,27.20
2023-03-20T05:13:02.795Z,28.60
2023-03-20T05:14:02.809Z,26.90
2023-03-20T05:15:02.789Z,26.90
2023-03-20T05:16:02.770Z,29.10
2023-03-20T05:17:02.853Z,27.80
2023-03-20T05:18:02.743Z,27.60
2023-03-20T05:19:02.732Z,27.10
2023-03-20T05:20:02.738Z,26.90
2023-03-20T05:21:02.745Z,27.20
2023-03-20T05:22:02.714Z,27.80
2023-03-20T05:23:05.817Z,26.60
2023-03-20T05:24:02.693Z,27.30
2023-03-20T05:25:02.675Z,26.10
2023-03-20T05:26:02.684Z,25.20
2023-03-20T05:27:02.650Z,26.80
2023-03-20T05:28:02.640Z,26.90
2023-03-20T05:29:02.623Z,27.00
2023-03-20T05:30:02.603Z,27.70
2023-03-20T05:31:02.679Z,26.20
2023-03-20T05:32:02.594Z,25.80
2023-03-20T05:33:02.608Z,27.50
2023-03-20T05:34:02.581Z,26.70
2023-03-20T05:35:02.550Z,25.10
2023-03-20T05:36:02.597Z,28.20
2023-03-20T05:37:02.534Z,25.30
2023-03-20T05:38:02.519Z,25.80
2023-03-20T05:39:02.552Z,25.90
2023-03-20T05:40:02.496Z,26.70
2023-03-20T05:41:02.485Z,27.60
2023-03-20T05:42:02.494Z,25.60
2023-03-20T05:43:02.490Z,24.10
2023-03-20T05:44:02.466Z,25.50
2023-03-20T05:45:02.451Z,24.70
2023-03-20T05:46:02.499Z,28.50
2023-03-20T05:47:02.452Z,23.80
2023-03-20T05:48:02.444Z,26.90
2023-03-20T05:49:02.488Z,29.40
2023-03-20T05:50:02.391Z,26.50
2023-03-20T05:51:02.383Z,26.80
2023-03-20T05:52:02.371Z,27.20
2023-03-20T05:53:02.360Z,27.10
2023-03-20T05:54:02.347Z,26.80
2023-03-20T05:55:02.417Z,27.80
2023-03-20T05:56:02.319Z,30.60
2023-03-20T05:57:02.448Z,27.80
2023-03-20T05:58:02.308Z,27.20
2023-03-20T05:59:02.308Z,27.70
2023-03-20T06:00:02.284Z,28.50
2023-03-20T06:01:02.270Z,29.10
2023-03-20T06:02:02.259Z,27.40
2023-03-20T06:03:02.370Z,26.70
2023-03-20T06:04:02.341Z,27.10
2023-03-20T06:05:02.225Z,26.30
2023-03-20T06:06:02.267Z,29.00
2023-03-20T06:07:02.212Z,27.10
2023-03-20T06:08:02.220Z,25.80
2023-03-20T06:09:02.209Z,26.60
2023-03-20T06:10:02.176Z,29.00
2023-03-20T06:11:02.183Z,28.80
2023-03-20T06:12:02.155Z,27.60
2023-03-20T06:13:02.179Z,33.20
2023-03-20T06:14:02.193Z,25.50
2023-03-20T06:15:02.127Z,27.70
2023-03-20T06:16:02.182Z,28.10
2023-03-20T06:17:02.095Z,27.60
2023-03-20T06:18:02.077Z,27.40
2023-03-20T06:19:02.085Z,25.80
2023-03-20T06:20:02.090Z,27.70
2023-03-20T06:21:02.046Z,27.50
2023-03-20T06:22:02.045Z,27.20
2023-03-20T06:23:02.030Z,27.20
2023-03-20T06:24:02.026Z,29.00
2023-03-20T06:25:02.008Z,28.10
2023-03-20T06:26:02.034Z,28.70
2023-03-20T06:27:02.037Z,28.50
2023-03-20T06:28:01.979Z,28.80
2023-03-20T06:29:01.973Z,27.80
2023-03-20T06:30:01.945Z,27.20
2023-03-20T06:31:01.968Z,27.40
2023-03-20T06:32:01.967Z,29.10
2023-03-20T06:33:01.988Z,26.90
2023-03-20T06:34:01.940Z,28.00
2023-03-20T06:35:01.901Z,28.80
2023-03-20T06:36:01.967Z,27.40
2023-03-20T06:37:01.916Z,28.20
2023-03-20T06:38:02.247Z,29.80
2023-03-20T06:39:01.846Z,29.20
2023-03-20T06:40:01.844Z,27.20
2023-03-20T06:41:01.945Z,27.70
2023-03-20T06:42:01.870Z,27.60
2023-03-20T06:43:01.868Z,29.20
2023-03-20T06:44:01.848Z,28.80
2023-03-20T06:45:01.794Z,28.40
2023-03-20T06:46:09.722Z,27.40
2023-03-20T06:47:01.788Z,28.80
2023-03-20T06:48:01.776Z,26.40
2023-03-20T06:49:01.763Z,29.40
2023-03-20T06:50:01.740Z,25.80
2023-03-20T06:51:01.716Z,28.80
2023-03-20T06:52:01.727Z,27.80
2023-03-20T06:53:01.690Z,27.20
2023-03-20T06:54:01.752Z,25.50
2023-03-20T06:55:01.788Z,23.40
2023-03-20T06:56:01.660Z,24.00
2023-03-20T06:57:01.689Z,22.80
2023-03-20T06:58:01.731Z,23.90
2023-03-20T06:59:01.677Z,21.50
2023-03-20T07:00:01.655Z,22.20
2023-03-20T07:01:01.627Z,25.30
2023-03-20T07:02:01.620Z,23.50
2023-03-20T07:03:02.384Z,20.00
2023-03-20T07:04:01.599Z,19.40
2023-03-20T07:05:01.680Z,19.40
2023-03-20T07:06:01.571Z,19.50
2023-03-20T07:07:01.566Z,18.30
2023-03-20T07:08:01.538Z,19.10
2023-03-20T07:09:01.521Z,19.60
2023-03-20T07:10:01.518Z,16.70
2023-03-20T07:11:01.509Z,19.00
2023-03-20T07:12:01.491Z,17.80
2023-03-20T07:13:01.535Z,17.90
2023-03-20T07:14:01.535Z,18.60
2023-03-20T07:15:01.512Z,16.50
2023-03-20T07:16:04.952Z,16.70
2023-03-20T07:17:01.452Z,17.40
2023-03-20T07:18:01.445Z,15.90
2023-03-20T07:19:01.453Z,16.10
2023-03-20T07:20:01.417Z,15.70
2023-03-20T07:21:01.389Z,15.80
2023-03-20T07:22:01.390Z,15.40
2023-03-20T07:23:01.374Z,14.30
2023-03-20T07:24:01.390Z,15.40
2023-03-20T07:25:01.366Z,14.70
2023-03-20T07:26:01.386Z,12.30
2023-03-20T07:27:01.325Z,13.40
2023-03-20T07:28:01.352Z,13.10
2023-03-20T07:29:01.323Z,13.50
2023-03-20T07:30:01.286Z,12.60
2023-03-20T07:31:01.306Z,11.40
2023-03-20T07:32:01.290Z,12.90
2023-03-20T07:33:01.406Z,12.70
2023-03-20T07:34:01.288Z,12.50
2023-03-20T07:35:01.248Z,11.30
2023-03-20T07:36:01.271Z,11.20
2023-03-20T07:37:01.239Z,10.30
2023-03-20T07:38:01.220Z,13.10
2023-03-20T07:39:01.344Z,11.00
2023-03-20T07:40:01.209Z,10.60
2023-03-20T07:41:01.174Z,10.80
2023-03-20T07:42:01.151Z,12.90
2023-03-20T07:43:01.155Z,11.00
2023-03-20T07:44:01.139Z,11.30
2023-03-20T07:45:01.130Z,12.30
2023-03-20T07:46:01.180Z,12.30
2023-03-20T07:47:01.743Z,11.50
2023-03-20T07:48:01.150Z,10.30
2023-03-20T07:49:01.068Z,11.60
2023-03-20T07:50:01.134Z,11.00
2023-03-20T07:51:01.127Z,10.60
2023-03-20T07:52:01.057Z,12.20
2023-03-20T07:53:01.099Z,10.20
2023-03-20T07:54:01.016Z,12.00
2023-03-20T07:55:01.017Z,11.80
2023-03-20T07:56:01.063Z,10.80
2023-03-20T07:57:02.330Z,10.60
2023-03-20T07:58:01.439Z,11.30
2023-03-20T07:59:01.152Z,11.00
2023-03-20T08:00:01.061Z,11.80
2023-03-20T08:01:01.031Z,11.20
2023-03-20T08:02:01.122Z,11.10
2023-03-20T08:03:01.149Z,13.50
2023-03-20T08:04:01.099Z,11.90
2023-03-20T08:05:00.903Z,12.50
2023-03-20T08:06:00.912Z,11.50
2023-03-20T08:07:01.079Z,12.40
2023-03-20T08:08:00.870Z,14.60
2023-03-20T08:09:00.860Z,11.10
2023-03-20T08:10:00.834Z,12.40
2023-03-20T08:11:00.825Z,13.60
2023-03-20T08:12:00.854Z,12.80
2023-03-20T08:13:00.826Z,13.70
2023-03-20T08:14:00.796Z,13.30
2023-03-20T08:15:00.822Z,12.80
2023-03-20T08:16:00.789Z,14.10
2023-03-20T08:17:13.944Z,13.70
2023-03-20T08:18:00.751Z,14.60
2023-03-20T08:19:00.778Z,14.20
2023-03-20T08:20:00.854Z,13.20
2023-03-20T08:21:00.722Z,13.50
2023-03-20T08:22:00.756Z,14.50
2023-03-20T08:23:00.705Z,13.50
2023-03-20T08:24:00.711Z,13.80
2023-03-20T08:25:00.733Z,13.20
2023-03-20T08:26:00.675Z,14.70
2023-03-20T08:27:00.681Z,14.10
2023-03-20T08:28:00.647Z,14.40
2023-03-20T08:29:00.694Z,14.40
2023-03-20T08:30:00.793Z,15.90
2023-03-20T08:31:00.690Z,15.90
2023-03-20T08:32:00.656Z,14.00
2023-03-20T08:33:00.662Z,13.20
2023-03-20T08:34:00.609Z,13.60
2023-03-20T08:35:00.678Z,13.90
2023-03-20T08:36:00.753Z,13.20
2023-03-20T08:37:00.598Z,13.50
2023-03-20T08:38:00.575Z,12.80
2023-03-20T08:39:00.567Z,13.20
2023-03-20T08:40:00.778Z,13.50
2023-03-20T08:41:00.505Z,14.50
2023-03-20T08:42:01.352Z,12.80
2023-03-20T08:43:00.526Z,13.20
2023-03-20T08:44:00.489Z,11.70
2023-03-20T08:45:00.669Z,13.60
2023-03-20T08:46:00.557Z,12.60
2023-03-20T08:47:07.714Z,14.10
2023-03-20T08:48:00.637Z,12.80
2023-03-20T08:49:00.423Z,15.10
2023-03-20T08:50:00.452Z,13.90
2023-03-20T08:51:00.837Z,13.20
2023-03-20T08:52:00.397Z,13.60
2023-03-20T08:53:00.413Z,13.30
2023-03-20T08:54:00.390Z,14.30
2023-03-20T08:55:00.358Z,14.50
2023-03-20T08:56:00.780Z,13.10
2023-03-20T08:57:00.324Z,14.50
2023-03-20T08:58:00.320Z,13.00
2023-03-20T08:59:00.312Z,13.50
2023-03-20T09:00:00.306Z,12.80
2023-03-20T09:01:00.288Z,13.00
2023-03-20T09:02:00.351Z,13.10
2023-03-20T09:03:00.362Z,14.20
2023-03-20T09:04:00.240Z,16.20
2023-03-20T09:05:00.240Z,14.60
2023-03-20T09:06:00.232Z,12.60
2023-03-20T09:07:00.407Z,14.10
2023-03-20T09:08:00.288Z,14.00
2023-03-20T09:09:00.249Z,14.50
2023-03-20T09:10:00.192Z,14.10
2023-03-20T09:11:00.161Z,13.70
2023-03-20T09:12:00.164Z,13.80
2023-03-20T09:13:00.192Z,13.70
2023-03-20T09:14:00.223Z,14.30
2023-03-20T09:15:00.146Z,13.40
2023-03-20T09:16:00.250Z,13.60
2023-03-20T09:17:00.151Z,13.40
2023-03-20T09:18:01.701Z,12.60
2023-03-20T09:19:00.138Z,12.80
2023-03-20T09:20:00.141Z,14.40
2023-03-20T09:21:00.124Z,12.60
2023-03-20T09:22:00.118Z,14.20
2023-03-20T09:23:00.060Z,12.50
2023-03-20T09:24:00.046Z,13.70
2023-03-20T09:25:00.040Z,12.10
2023-03-20T09:26:00.014Z,12.90
2023-03-20T09:27:02.333Z,12.50
2023-03-20T09:28:00.000Z,13.00
2023-03-20T09:29:00.724Z,12.70
2023-03-20T09:30:00.011Z,12.40
2023-03-20T09:30:59.976Z,11.30
2023-03-20T09:31:59.989Z,11.20
2023-03-20T09:33:00.010Z,11.20
2023-03-20T09:33:59.958Z,11.40
2023-03-20T09:34:59.926Z,12.00
2023-03-20T09:36:00.249Z,11.90
2023-03-20T09:36:59.899Z,11.40
2023-03-20T09:37:59.886Z,10.50
2023-03-20T09:38:59.910Z,11.50
2023-03-20T09:39:59.908Z,11.20
2023-03-20T09:40:59.844Z,12.20
2023-03-20T09:41:59.903Z,11.30
2023-03-20T09:42:59.818Z,11.30
2023-03-20T09:43:59.836Z,10.40
2023-03-20T09:44:59.846Z,10.30
2023-03-20T09:45:59.873Z,10.80
2023-03-20T09:47:16.375Z,10.80
2023-03-20T09:48:00.785Z,11.70
2023-03-20T09:48:59.835Z,9.50
2023-03-20T09:49:59.756Z,10.90
2023-03-20T09:50:59.735Z,11.70
2023-03-20T09:51:59.743Z,10.10
2023-03-20T09:53:00.321Z,9.60
2023-03-20T09:54:01.338Z,9.20
2023-03-20T09:54:59.708Z,9.20
2023-03-20T09:55:59.742Z,9.20
2023-03-20T09:56:59.833Z,8.90
2023-03-20T09:57:59.647Z,9.40
2023-03-20T09:58:59.649Z,10.40
2023-03-20T09:59:59.646Z,9.00
2023-03-20T10:00:59.656Z,9.40
2023-03-20T10:01:59.708Z,7.80
2023-03-20T10:02:59.608Z,8.00
2023-03-20T10:03:59.593Z,8.50
2023-03-20T10:04:59.985Z,7.00
2023-03-20T10:05:59.637Z,8.70
2023-03-20T10:06:59.604Z,7.30
2023-03-20T10:07:59.570Z,8.30
2023-03-20T10:08:59.526Z,7.40
2023-03-20T10:09:59.517Z,10.10
2023-03-20T10:10:59.521Z,7.00
2023-03-20T10:11:59.501Z,6.80
2023-03-20T10:12:59.515Z,8.20
2023-03-20T10:13:59.506Z,6.60
2023-03-20T10:14:59.823Z,7.30
2023-03-20T10:15:59.531Z,6.90
2023-03-20T10:16:59.433Z,5.80
2023-03-20T10:17:59.447Z,7.80
2023-03-20T10:18:59.416Z,5.80
2023-03-20T10:19:59.407Z,6.80
2023-03-20T10:20:59.468Z,7.20
2023-03-20T10:21:59.573Z,7.40
2023-03-20T10:22:59.402Z,7.90
2023-03-20T10:23:59.379Z,5.50
2023-03-20T10:24:59.345Z,6.20
2023-03-20T10:26:00.296Z,6.70
2023-03-20T10:26:59.354Z,6.80
2023-03-20T10:27:59.350Z,7.00
2023-03-20T10:28:59.324Z,6.90
2023-03-20T10:29:59.308Z,5.90
2023-03-20T10:30:59.302Z,6.90
2023-03-20T10:31:59.291Z,6.60
2023-03-20T10:33:00.254Z,8.20
2023-03-20T10:33:59.263Z,6.40
2023-03-20T10:34:59.325Z,7.60
2023-03-20T10:35:59.342Z,10.90
2023-03-20T10:36:59.890Z,8.60
2023-03-20T10:37:59.222Z,6.10
2023-03-20T10:38:59.249Z,6.60
2023-03-20T10:39:59.314Z,6.40
2023-03-20T10:40:59.345Z,7.30
2023-03-20T10:41:59.188Z,9.00
2023-03-20T10:42:59.272Z,8.60
2023-03-20T10:43:59.143Z,7.10
2023-03-20T10:44:59.117Z,7.20
2023-03-20T10:45:59.108Z,7.90
2023-03-20T10:46:59.219Z,7.60
2023-03-20T10:48:06.602Z,7.50
2023-03-20T10:48:59.105Z,8.00
2023-03-20T10:49:59.067Z,7.30
2023-03-20T10:50:59.069Z,8.70
2023-03-20T10:51:59.043Z,7.50
2023-03-20T10:52:59.033Z,7.40
2023-03-20T10:53:59.086Z,8.20
2023-03-20T10:54:59.007Z,7.80
2023-03-20T10:55:59.031Z,7.80
2023-03-20T10:56:59.059Z,7.80
2023-03-20T10:57:58.985Z,10.40
2023-03-20T10:58:59.039Z,8.30
2023-03-20T10:59:58.975Z,8.50
2023-03-20T11:00:58.987Z,7.80
2023-03-20T11:01:58.947Z,8.30
2023-03-20T11:02:58.914Z,7.60
2023-03-20T11:03:58.963Z,8.50
2023-03-20T11:04:58.893Z,9.20
2023-03-20T11:06:09.213Z,7.80
2023-03-20T11:06:58.874Z,8.60
2023-03-20T11:07:58.875Z,7.80
2023-03-20T11:08:58.903Z,8.50
2023-03-20T11:09:58.870Z,8.10
2023-03-20T11:10:58.864Z,8.90
2023-03-20T11:11:58.825Z,7.80
2023-03-20T11:12:58.804Z,8.70
2023-03-20T11:13:58.802Z,9.00
2023-03-20T11:14:58.818Z,9.40
2023-03-20T11:15:58.794Z,10.30
2023-03-20T11:16:58.810Z,8.60
2023-03-20T11:17:58.782Z,7.80
2023-03-20T11:18:58.749Z,8.00
2023-03-20T11:19:58.747Z,11.40
2023-03-20T11:20:58.753Z,10.30
2023-03-20T11:21:58.729Z,8.30
2023-03-20T11:22:58.750Z,9.50
2023-03-20T11:23:58.711Z,8.30
2023-03-20T11:24:58.682Z,7.60
2023-03-20T11:25:58.681Z,7.40
2023-03-20T11:26:58.667Z,8.10
2023-03-20T11:27:58.640Z,9.20
2023-03-20T11:28:58.681Z,8.50
2023-03-20T11:29:58.649Z,8.80
2023-03-20T11:31:04.833Z,7.90
2023-03-20T11:31:59.675Z,8.40
2023-03-20T11:32:58.647Z,9.20
2023-03-20T11:33:58.589Z,7.70
2023-03-20T11:34:58.556Z,8.30
2023-03-20T11:35:58.583Z,9.00
2023-03-20T11:37:09.758Z,8.80
2023-03-20T11:37:59.528Z,9.00
2023-03-20T11:38:58.523Z,7.50
2023-03-20T11:39:58.532Z,8.30
2023-03-20T11:40:58.488Z,7.70
2023-03-20T11:41:58.500Z,6.80
2023-03-20T11:42:58.467Z,7.70
2023-03-20T11:43:58.475Z,7.80
2023-03-20T11:44:59.308Z,9.00
2023-03-20T11:45:58.517Z,7.60
2023-03-20T11:46:58.464Z,9.50
2023-03-20T11:47:58.425Z,6.30
2023-03-20T11:48:58.400Z,6.00
2023-03-20T11:49:58.432Z,6.60
2023-03-20T11:50:58.412Z,8.20
2023-03-20T11:51:58.464Z,4.90
2023-03-20T11:52:58.371Z,7.30
2023-03-20T11:53:58.373Z,6.70
2023-03-20T11:54:58.348Z,6.80
2023-03-20T11:55:58.324Z,6.00
2023-03-20T11:56:58.336Z,5.50
2023-03-20T11:57:58.304Z,6.30
2023-03-20T11:58:58.291Z,7.40
2023-03-20T11:59:58.292Z,4.60
2023-03-20T12:00:58.272Z,6.80
2023-03-20T12:01:58.385Z,6.60
2023-03-20T12:02:58.259Z,5.90
2023-03-20T12:03:58.343Z,5.30
2023-03-20T12:04:58.242Z,6.60
2023-03-20T12:05:58.215Z,5.00
2023-03-20T12:06:58.238Z,5.70
2023-03-20T12:07:58.241Z,6.70
2023-03-20T12:08:58.174Z,5.50
2023-03-20T12:09:58.170Z,4.50
2023-03-20T12:10:58.159Z,7.10
2023-03-20T12:12:00.072Z,4.40
2023-03-20T12:12:58.129Z,4.70
2023-03-20T12:13:58.263Z,6.10
2023-03-20T12:14:58.249Z,5.10
2023-03-20T12:15:58.220Z,5.40
2023-03-20T12:16:58.127Z,4.40
2023-03-20T12:17:58.186Z,5.50
2023-03-20T12:18:58.090Z,6.10
2023-03-20T12:19:58.096Z,5.50
2023-03-20T12:20:58.065Z,6.40
2023-03-20T12:21:58.121Z,6.20
2023-03-20T12:22:58.146Z,4.80
2023-03-20T12:23:58.010Z,4.70
2023-03-20T12:24:58.000Z,5.00
2023-03-20T12:25:57.997Z,6.70
2023-03-20T12:26:57.987Z,5.30
2023-03-20T12:27:57.959Z,5.30
2023-03-20T12:28:57.950Z,6.10
2023-03-20T12:29:57.944Z,5.80
2023-03-20T12:30:57.961Z,5.20
2023-03-20T12:31:57.929Z,5.50
2023-03-20T12:32:57.919Z,6.90
2023-03-20T12:33:57.890Z,5.20
2023-03-20T12:34:57.922Z,6.90
2023-03-20T12:35:57.918Z,5.00
2023-03-20T12:36:57.860Z,4.90
2023-03-20T12:37:57.866Z,5.30
2023-03-20T12:38:57.839Z,5.90
2023-03-20T12:39:57.825Z,5.50
2023-03-20T12:40:57.861Z,5.80
2023-03-20T12:41:57.864Z,5.80
2023-03-20T12:42:57.841Z,5.80
2023-03-20T12:43:57.796Z,5.50
2023-03-20T12:44:57.792Z,5.90
2023-03-20T12:45:57.767Z,6.30
2023-03-20T12:46:57.866Z,6.00
2023-03-20T12:47:57.745Z,5.70
2023-03-20T12:49:05.237Z,7.10
2023-03-20T12:49:57.725Z,6.20
2023-03-20T12:50:57.750Z,5.80
2023-03-20T12:51:58.384Z,5.80
2023-03-20T12:52:57.696Z,6.10
2023-03-20T12:53:57.676Z,6.50
2023-03-20T12:54:57.666Z,5.40
2023-03-20T12:55:57.657Z,5.20
2023-03-20T12:56:57.636Z,5.10
2023-03-20T12:57:57.623Z,6.20